Time;durP1;ratioP1;P1;durP2;ratioP2;P2;SDS_P1;SDS_P2;PMS_P1;PMS_P2;Temp;Humidity;BMP_temperature;BMP_pressure;BME280_temperature;BME280_humidity;BME280_pressure;Samples;Min_cycle;Max_cycle;Signal;HPM_P1;HPM_P2
2022/04/21 00:00:54;;;;;;;7.77;4.53;;;6.60;99.90;;;;;;5113888;28;20256;-52
2022/04/21 00:03:22;;;;;;;6.77;4.23;;;6.60;99.90;;;;;;5113701;28;20266;-52
2022/04/21 00:05:50;;;;;;;7.30;4.60;;;6.60;99.90;;;;;;5114105;28;20226;-53
2022/04/21 00:08:20;;;;;;;5.97;4.10;;;6.50;99.90;;;;;;5114063;28;20207;-51
2022/04/21 00:10:48;;;;;;;4.33;3.73;;;6.50;99.90;;;;;;5114178;28;20290;-51
2022/04/21 00:13:16;;;;;;;7.53;4.33;;;6.50;99.90;;;;;;5113139;28;20710;-51
2022/04/21 00:15:46;;;;;;;9.00;4.30;;;6.50;99.90;;;;;;5113972;28;20204;-51
2022/04/21 00:18:14;;;;;;;5.77;4.03;;;6.50;99.90;;;;;;5113734;28;20651;-51
2022/04/21 00:20:42;;;;;;;5.67;4.13;;;6.50;99.90;;;;;;5114329;28;20579;-51
2022/04/21 00:23:27;;;;;;;5.70;4.40;;;6.50;99.90;;;;;;5113449;28;20225;-53
2022/04/21 00:25:58;;;;;;;5.10;4.00;;;6.60;99.90;;;;;;5113996;28;20745;-50
2022/04/21 00:28:28;;;;;;;4.30;3.90;;;6.50;99.90;;;;;;5113849;28;20253;-51
2022/04/21 00:30:58;;;;;;;7.70;4.23;;;6.40;99.90;;;;;;5104312;28;20204;-50
2022/04/21 00:33:26;;;;;;;4.40;4.00;;;6.30;99.90;;;;;;5092181;28;20232;-50
2022/04/21 00:35:55;;;;;;;6.80;4.27;;;6.30;99.90;;;;;;5093447;28;20204;-51
2022/04/21 00:38:23;;;;;;;4.93;3.83;;;6.30;99.90;;;;;;5092319;28;20343;-51
2022/04/21 00:40:51;;;;;;;4.90;4.30;;;6.30;99.90;;;;;;5093360;28;20234;-51
2022/04/21 00:43:21;;;;;;;4.40;3.80;;;6.20;99.90;;;;;;5092583;28;20228;-51
2022/04/21 00:45:51;;;;;;;6.57;4.40;;;6.20;99.90;;;;;;5104416;28;20222;-50
2022/04/21 00:48:21;;;;;;;4.23;3.77;;;6.20;99.90;;;;;;5113577;28;20212;-51
2022/04/21 00:50:49;;;;;;;5.77;4.17;;;6.10;99.90;;;;;;5113903;28;20238;-51
2022/04/21 00:53:17;;;;;;;5.63;3.70;;;6.10;99.90;;;;;;5112451;28;20234;-51
2022/04/21 00:55:45;;;;;;;5.90;3.50;;;6.10;99.90;;;;;;5113909;28;20664;-50
2022/04/21 00:58:13;;;;;;;4.30;3.90;;;6.10;99.90;;;;;;5113088;28;20199;-51
2022/04/21 01:00:41;;;;;;;7.23;4.00;;;6.10;99.90;;;;;;5113380;28;20212;-50
2022/04/21 01:03:10;;;;;;;4.93;3.77;;;6.10;99.90;;;;;;5113070;28;20724;-50
2022/04/21 01:05:39;;;;;;;5.60;4.10;;;6.10;99.90;;;;;;5112833;28;20244;-51
2022/04/21 01:08:08;;;;;;;6.90;4.30;;;6.10;99.90;;;;;;5130420;27;20237;-51
2022/04/21 01:10:38;;;;;;;4.73;3.90;;;6.10;99.90;;;;;;5092833;28;20205;-51
2022/04/21 01:13:08;;;;;;;7.23;4.03;;;6.10;99.90;;;;;;5092557;28;20204;-51
2022/04/21 01:15:37;;;;;;;4.77;4.27;;;6.10;99.90;;;;;;5094111;28;20413;-51
2022/04/21 01:18:06;;;;;;;4.63;3.60;;;6.00;99.90;;;;;;5113095;28;20677;-51
2022/04/21 01:20:36;;;;;;;7.47;4.30;;;6.00;99.90;;;;;;5112677;28;20209;-50
2022/04/21 01:23:04;;;;;;;6.37;3.80;;;6.00;99.90;;;;;;5112395;28;20203;-51
2022/04/21 01:25:38;;;;;;;5.47;4.17;;;5.90;99.90;;;;;;5112833;27;20223;-51
2022/04/21 01:28:08;;;;;;;5.70;4.03;;;5.90;99.90;;;;;;5112686;28;20198;-51
2022/04/21 01:30:36;;;;;;;6.37;4.50;;;5.80;99.90;;;;;;5112888;28;20248;-51
2022/04/21 01:33:04;;;;;;;4.77;4.27;;;5.90;99.90;;;;;;5111744;28;20667;-51
2022/04/21 01:35:32;;;;;;;4.23;3.53;;;5.90;99.90;;;;;;5112740;28;20664;-51
2022/04/21 01:43:33;;;;;;;7.90;4.27;;;5.80;99.90;;;;;;5112123;28;20577;-51
2022/04/21 01:46:01;;;;;;;7.43;4.17;;;5.80;99.90;;;;;;5111883;28;20215;-50
2022/04/21 01:48:30;;;;;;;6.20;4.00;;;5.80;99.90;;;;;;5112788;28;20207;-50
2022/04/21 01:50:58;;;;;;;7.57;3.83;;;5.80;99.90;;;;;;5112061;28;20212;-51
2022/04/21 01:53:27;;;;;;;5.77;3.90;;;5.80;99.90;;;;;;5112044;28;20230;-51
2022/04/21 01:55:56;;;;;;;5.37;4.07;;;5.80;99.90;;;;;;5112058;28;20351;-50
2022/04/21 01:58:24;;;;;;;5.13;4.10;;;5.80;99.90;;;;;;5112241;28;20207;-51
2022/04/21 02:00:52;;;;;;;5.07;3.80;;;5.80;99.90;;;;;;5112090;28;20737;-51
2022/04/21 02:03:20;;;;;;;6.70;3.97;;;5.80;99.90;;;;;;5111334;28;20269;-50
2022/04/21 02:05:48;;;;;;;4.10;3.47;;;5.80;99.90;;;;;;5111701;28;20270;-51
2022/04/21 02:08:16;;;;;;;5.20;4.40;;;5.80;99.90;;;;;;5111652;28;20745;-51
2022/04/21 02:10:46;;;;;;;4.50;3.47;;;5.80;99.90;;;;;;5111958;28;20731;-50
2022/04/21 02:13:14;;;;;;;6.23;4.20;;;5.80;99.90;;;;;;5111429;28;20225;-50
2022/04/21 02:15:42;;;;;;;5.07;3.73;;;5.80;99.90;;;;;;5111754;28;20735;-50
2022/04/21 02:18:10;;;;;;;5.13;3.90;;;5.80;99.90;;;;;;5111633;28;20210;-51
2022/04/21 02:20:38;;;;;;;6.37;4.23;;;5.80;99.90;;;;;;5111847;28;20203;-50
2022/04/21 02:23:07;;;;;;;6.53;3.90;;;5.80;99.90;;;;;;5111466;28;20732;-50
2022/04/21 02:25:35;;;;;;;4.77;3.60;;;5.70;99.90;;;;;;5111560;28;20238;-51
2022/04/21 02:28:05;;;;;;;5.27;4.10;;;5.80;99.90;;;;;;5111917;28;20210;-50
2022/04/21 02:30:33;;;;;;;6.20;4.20;;;5.80;99.90;;;;;;5111789;28;20237;-51
2022/04/21 02:33:01;;;;;;;5.83;3.70;;;5.80;99.90;;;;;;5110451;28;20216;-51
2022/04/21 02:35:29;;;;;;;6.63;4.00;;;5.80;99.90;;;;;;5111405;28;20268;-51
2022/04/21 02:37:57;;;;;;;4.07;3.67;;;5.80;99.90;;;;;;5109653;28;20276;-51
2022/04/21 02:40:25;;;;;;;6.47;3.83;;;5.80;99.90;;;;;;5111549;28;20205;-51
2022/04/21 02:42:54;;;;;;;4.33;3.93;;;5.80;99.90;;;;;;5111467;28;20254;-51
2022/04/21 02:45:24;;;;;;;5.47;4.03;;;5.80;99.90;;;;;;5103644;28;20273;-51
2022/04/21 02:47:52;;;;;;;6.53;4.67;;;5.90;99.90;;;;;;5091470;28;20257;-51
2022/04/21 02:50:21;;;;;;;5.90;4.27;;;5.90;99.90;;;;;;5090875;28;20257;-51
2022/04/21 02:52:49;;;;;;;5.43;4.30;;;6.00;99.90;;;;;;5090939;28;20212;-51
2022/04/21 02:58:03;;;;;;;4.80;3.97;;;6.10;99.90;;;;;;5090920;28;20217;-51
2022/04/21 03:00:32;;;;;;;4.77;3.93;;;6.20;99.90;;;;;;5111171;28;20688;-51
2022/04/21 03:03:01;;;;;;;5.10;3.90;;;6.30;99.90;;;;;;5110754;28;20665;-51
2022/04/21 03:05:29;;;;;;;4.43;3.60;;;6.40;99.90;;;;;;5111214;28;20229;-50
2022/04/21 03:07:57;;;;;;;6.83;3.80;;;6.40;99.90;;;;;;5110215;28;20612;-51
2022/04/21 03:10:25;;;;;;;6.57;4.13;;;6.40;99.90;;;;;;5111339;28;20553;-51
2022/04/21 03:12:54;;;;;;;4.90;3.70;;;6.40;99.90;;;;;;5110361;28;20253;-52
2022/04/21 03:15:22;;;;;;;5.33;3.70;;;6.40;99.90;;;;;;5110993;28;20203;-51
2022/04/21 03:17:51;;;;;;;5.63;3.67;;;6.50;99.90;;;;;;5111182;28;20216;-51
2022/04/21 03:25:51;;;;;;;5.83;3.90;;;6.60;99.90;;;;;;5111131;28;20231;-51
2022/04/21 03:28:19;;;;;;;6.67;4.13;;;6.80;99.90;;;;;;5111483;28;20207;-51
2022/04/21 03:30:47;;;;;;;5.87;4.20;;;6.90;99.90;;;;;;5110999;28;20207;-51
2022/04/21 03:33:17;;;;;;;4.73;4.07;;;7.00;99.90;;;;;;5110132;28;20226;-51
2022/04/21 03:35:45;;;;;;;5.07;3.57;;;7.00;99.90;;;;;;5110983;28;20207;-51
2022/04/21 03:38:13;;;;;;;5.50;3.67;;;7.00;99.90;;;;;;5128572;28;20253;-51
2022/04/21 03:40:41;;;;;;;6.53;4.20;;;7.00;99.90;;;;;;5131373;28;20238;-51
2022/04/21 03:43:10;;;;;;;6.57;4.10;;;7.10;99.90;;;;;;5131193;27;20260;-51
2022/04/21 03:45:39;;;;;;;4.60;3.90;;;7.10;99.90;;;;;;5121265;27;20206;-51
2022/04/21 03:48:07;;;;;;;7.13;4.17;;;7.20;99.90;;;;;;5110678;28;20698;-51
2022/04/21 03:50:37;;;;;;;5.20;4.17;;;7.20;99.90;;;;;;5111097;28;20206;-51
2022/04/21 03:53:05;;;;;;;4.73;4.00;;;7.20;99.90;;;;;;5110166;28;20261;-51
2022/04/21 03:55:33;;;;;;;6.00;4.13;;;7.20;99.90;;;;;;5111325;28;20259;-51
2022/04/21 03:58:01;;;;;;;5.90;4.20;;;7.30;99.90;;;;;;5110722;28;20207;-51
2022/04/21 04:00:30;;;;;;;5.63;4.20;;;7.30;99.90;;;;;;5110805;28;20211;-51
2022/04/21 04:02:58;;;;;;;5.07;4.30;;;7.30;99.90;;;;;;5110387;28;20206;-51
2022/04/21 04:05:27;;;;;;;8.50;4.10;;;7.30;99.90;;;;;;5110944;28;20206;-51
2022/04/21 04:10:55;;;;;;;6.53;3.97;;;7.20;99.90;;;;;;5113645;28;20207;-51
2022/04/21 04:13:24;;;;;;;5.43;3.93;;;7.20;99.90;;;;;;5114178;27;20633;-51
2022/04/21 04:15:54;;;;;;;6.07;4.83;;;7.20;99.90;;;;;;5114690;28;20204;-51
2022/04/21 04:18:23;;;;;;;6.40;3.93;;;7.10;99.90;;;;;;5114755;28;20207;-51
2022/04/21 04:20:51;;;;;;;5.73;4.07;;;7.10;99.90;;;;;;5093939;28;20237;-51
2022/04/21 04:23:22;;;;;;;6.43;4.33;;;7.00;99.90;;;;;;5129704;27;20290;-51
2022/04/21 04:25:50;;;;;;;6.97;4.30;;;7.00;99.90;;;;;;5128904;27;20202;-51
2022/04/21 04:28:19;;;;;;;8.00;5.13;;;7.00;99.90;;;;;;5114339;28;20211;-51
2022/04/21 04:30:47;;;;;;;5.77;4.63;;;7.00;99.90;;;;;;5114558;28;20666;-51
2022/04/21 04:33:16;;;;;;;7.13;5.53;;;7.00;99.90;;;;;;5112850;27;20226;-51
2022/04/21 04:35:44;;;;;;;6.23;4.73;;;7.00;99.90;;;;;;5113871;28;20217;-51
2022/04/21 04:38:14;;;;;;;5.17;4.57;;;7.00;99.90;;;;;;5112875;28;20616;-51
2022/04/21 04:40:43;;;;;;;5.80;4.80;;;7.00;99.90;;;;;;5114183;28;20203;-51
2022/04/21 04:43:10;;;;;;;11.17;5.03;;;7.00;99.90;;;;;;5113780;28;20235;-51
2022/04/21 04:48:24;;;;;;;6.00;4.40;;;7.10;99.90;;;;;;5114066;28;20273;-51
2022/04/21 04:50:52;;;;;;;5.80;4.27;;;7.00;99.90;;;;;;5113559;28;20694;-51
2022/04/21 04:53:20;;;;;;;6.57;4.77;;;7.00;99.90;;;;;;5112970;28;20744;-51
2022/04/21 04:55:50;;;;;;;5.20;3.97;;;7.00;99.90;;;;;;5113835;28;20210;-51
2022/04/21 04:58:18;;;;;;;8.07;4.57;;;7.10;99.90;;;;;;5114078;27;20584;-50
2022/04/21 05:00:48;;;;;;;6.37;4.30;;;7.30;99.90;;;;;;5113547;28;20270;-51
2022/04/21 05:03:19;;;;;;;6.37;4.67;;;7.40;99.90;;;;;;5112360;28;20780;-51
2022/04/21 05:05:47;;;;;;;6.70;4.60;;;7.40;99.90;;;;;;5113677;28;20203;-51
2022/04/21 05:08:15;;;;;;;6.63;4.70;;;7.30;99.90;;;;;;5113093;28;20226;-51
2022/04/21 05:10:43;;;;;;;5.47;4.37;;;7.30;99.90;;;;;;5113799;28;20211;-51
2022/04/21 05:13:13;;;;;;;8.50;4.60;;;7.40;99.90;;;;;;5112968;28;20260;-51
2022/04/21 05:15:41;;;;;;;6.07;4.67;;;7.40;99.90;;;;;;5113198;28;20207;-51
2022/04/21 05:18:10;;;;;;;5.47;4.73;;;7.40;99.90;;;;;;5113079;28;20588;-51
2022/04/21 05:20:39;;;;;;;5.97;5.00;;;7.40;99.90;;;;;;5112925;28;20210;-51
2022/04/21 05:23:08;;;;;;;6.67;4.93;;;7.50;99.90;;;;;;5112204;28;20264;-50
2022/04/21 05:25:37;;;;;;;5.80;4.40;;;7.60;99.90;;;;;;5113276;28;20235;-50
2022/04/21 05:28:07;;;;;;;4.87;4.37;;;7.80;99.90;;;;;;5112972;28;20235;-51
2022/04/21 05:30:58;;;;;;;6.00;4.40;;;7.80;99.90;;;;;;5112901;28;20208;-51
2022/04/21 05:33:29;;;;;;;8.50;4.97;;;7.90;99.90;;;;;;5112850;28;20219;-51
2022/04/21 05:35:59;;;;;;;5.63;4.83;;;7.90;99.90;;;;;;5112783;28;20343;-51
2022/04/21 05:38:28;;;;;;;6.63;5.00;;;8.00;99.90;;;;;;5112802;28;20237;-51
2022/04/21 05:40:57;;;;;;;7.37;4.87;;;8.10;99.90;;;;;;5113283;28;20204;-51
2022/04/21 05:43:30;;;;;;;6.70;4.87;;;8.20;99.90;;;;;;5112229;28;20223;-51
2022/04/21 05:46:00;;;;;;;8.93;6.03;;;8.30;99.90;;;;;;5112520;28;20202;-51
2022/04/21 05:48:29;;;;;;;11.87;6.10;;;8.40;99.90;;;;;;5112623;28;20207;-51
2022/04/21 05:50:59;;;;;;;9.80;5.97;;;8.40;99.90;;;;;;5112792;28;20203;-51
2022/04/21 05:53:28;;;;;;;8.83;5.50;;;8.50;99.90;;;;;;5111229;28;20227;-51
2022/04/21 05:55:57;;;;;;;8.30;6.33;;;8.60;99.90;;;;;;5111512;28;20208;-51
2022/04/21 05:58:25;;;;;;;9.70;5.83;;;8.80;99.90;;;;;;5112359;28;20226;-51
2022/04/21 06:00:54;;;;;;;7.27;5.57;;;8.90;99.90;;;;;;5112729;28;20210;-51
2022/04/21 06:03:31;;;;;;;6.23;5.57;;;9.00;99.90;;;;;;5112005;28;20265;-51
2022/04/21 06:05:59;;;;;;;11.70;7.83;;;9.10;99.90;;;;;;5112255;28;20203;-51
2022/04/21 06:08:27;;;;;;;7.67;6.20;;;9.30;99.90;;;;;;5111808;28;20257;-51
2022/04/21 06:10:56;;;;;;;7.00;5.20;;;9.60;99.90;;;;;;5112159;28;20207;-51
2022/04/21 06:13:25;;;;;;;7.20;5.00;;;9.90;99.90;;;;;;5090608;28;20258;-51
2022/04/21 06:15:53;;;;;;;6.23;5.27;;;10.10;99.90;;;;;;5111427;28;20271;-51
2022/04/21 06:18:23;;;;;;;7.40;5.70;;;10.30;99.90;;;;;;5111558;28;20294;-51
2022/04/21 06:20:53;;;;;;;7.07;5.50;;;10.40;99.90;;;;;;5112085;28;20261;-51
2022/04/21 06:23:23;;;;;;;7.33;5.53;;;10.70;99.90;;;;;;5110800;28;20639;-51
2022/04/21 06:25:58;;;;;;;6.17;5.17;;;10.70;99.90;;;;;;5112263;28;20713;-51
2022/04/21 06:28:26;;;;;;;7.33;5.40;;;10.70;99.90;;;;;;5112305;28;20311;-51
2022/04/21 06:30:55;;;;;;;8.03;5.67;;;10.60;99.90;;;;;;5111870;28;20725;-52
2022/04/21 06:33:23;;;;;;;6.73;5.57;;;10.60;99.90;;;;;;5110691;28;20235;-52
2022/04/21 06:35:53;;;;;;;6.17;5.53;;;10.50;99.90;;;;;;5111897;28;20574;-51
2022/04/21 06:38:21;;;;;;;8.00;5.83;;;10.20;99.90;;;;;;5111992;28;20245;-51
2022/04/21 06:40:49;;;;;;;7.20;5.20;;;10.20;99.90;;;;;;5111835;28;20207;-51
2022/04/21 06:48:49;;;;;;;6.80;5.53;;;10.00;99.90;;;;;;5111680;28;20285;-51
2022/04/21 06:51:19;;;;;;;5.90;5.30;;;10.00;99.90;;;;;;5111109;28;20670;-52
2022/04/21 06:53:48;;;;;;;5.60;5.10;;;10.10;99.90;;;;;;5110751;28;20227;-50
2022/04/21 06:56:16;;;;;;;6.83;5.30;;;10.10;99.90;;;;;;5111481;28;20235;-51
2022/04/21 06:58:44;;;;;;;6.83;5.30;;;10.20;99.90;;;;;;5111769;28;20286;-51
2022/04/21 07:01:12;;;;;;;7.13;4.90;;;10.20;99.90;;;;;;5111829;28;20207;-51
2022/04/21 07:03:40;;;;;;;8.00;5.73;;;10.20;99.90;;;;;;5110981;28;20280;-51
2022/04/21 07:06:10;;;;;;;8.10;5.33;;;10.20;99.90;;;;;;5096226;28;20218;-52
2022/04/21 07:08:39;;;;;;;5.00;4.50;;;10.20;99.90;;;;;;5104130;28;20216;-51
2022/04/21 07:11:07;;;;;;;6.10;4.97;;;10.20;99.90;;;;;;5111420;28;20207;-52
2022/04/21 07:13:35;;;;;;;7.20;5.20;;;10.20;99.90;;;;;;5110131;28;20220;-50
2022/04/21 07:16:03;;;;;;;7.63;5.37;;;10.20;99.90;;;;;;5111585;28;20207;-51
2022/04/21 07:18:32;;;;;;;6.60;5.00;;;10.20;99.90;;;;;;5111373;28;20200;-51
2022/04/21 07:21:00;;;;;;;6.97;5.07;;;10.20;99.90;;;;;;5110977;28;20207;-51
2022/04/21 07:23:29;;;;;;;6.00;4.93;;;10.30;99.90;;;;;;5109636;28;20227;-51
2022/04/21 07:25:58;;;;;;;8.17;5.50;;;10.40;99.90;;;;;;5110553;28;20207;-51
2022/04/21 07:28:26;;;;;;;8.77;5.13;;;10.30;99.90;;;;;;5111466;28;20568;-51
2022/04/21 07:30:54;;;;;;;7.63;5.37;;;10.40;99.90;;;;;;5110772;28;20225;-51
2022/04/21 07:33:23;;;;;;;6.80;5.27;;;10.40;99.90;;;;;;5110051;28;20731;-51
2022/04/21 07:35:52;;;;;;;6.00;5.17;;;10.50;99.90;;;;;;5111259;28;20215;-52
2022/04/21 07:38:21;;;;;;;7.43;5.40;;;10.60;99.90;;;;;;5110881;28;20196;-51
2022/04/21 07:40:53;;;;;;;6.67;5.20;;;10.60;99.90;;;;;;5111302;28;20203;-51
2022/04/21 07:43:24;;;;;;;9.30;4.87;;;10.80;99.90;;;;;;5111244;28;20660;-51
2022/04/21 07:45:52;;;;;;;8.17;4.90;;;11.10;99.90;;;;;;5114774;28;20196;-51
2022/04/21 07:48:21;;;;;;;6.70;4.97;;;11.50;99.90;;;;;;5114472;28;20227;-52
2022/04/21 07:50:49;;;;;;;6.77;4.73;;;11.90;99.90;;;;;;5114828;28;20208;-52
2022/04/21 07:53:20;;;;;;;6.07;4.57;;;12.40;99.90;;;;;;5132216;27;20650;-51
2022/04/21 07:55:51;;;;;;;7.57;4.60;;;13.00;99.90;;;;;;5134836;27;20211;-50
2022/04/21 07:58:19;;;;;;;6.30;5.20;;;13.30;99.90;;;;;;5135181;27;20570;-52
2022/04/21 08:00:49;;;;;;;6.53;4.93;;;13.30;99.90;;;;;;5135073;27;20977;-51
2022/04/21 08:03:19;;;;;;;6.17;4.53;;;13.00;99.90;;;;;;5125967;27;20303;-52
2022/04/21 08:05:48;;;;;;;9.53;4.83;;;12.70;99.90;;;;;;5114409;27;20262;-52
2022/04/21 08:08:16;;;;;;;7.57;4.87;;;12.60;99.90;;;;;;5113686;28;20227;-51
2022/04/21 08:10:44;;;;;;;5.33;4.73;;;12.30;99.90;;;;;;5114235;28;20677;-52
2022/04/21 08:13:17;;;;;;;5.30;4.53;;;12.30;99.90;;;;;;5112583;28;20219;-52
2022/04/21 08:15:50;;;;;;;9.87;5.20;;;12.60;99.90;;;;;;5114107;28;20247;-51
2022/04/21 08:18:18;;;;;;;8.03;4.93;;;12.80;99.90;;;;;;5113855;28;20770;-52
2022/04/21 08:20:48;;;;;;;6.40;5.17;;;12.90;99.90;;;;;;5114433;28;20268;-52
2022/04/21 08:23:16;;;;;;;5.30;4.80;;;13.00;99.90;;;;;;5113258;28;20752;-51
2022/04/21 08:34:25;;;;;;;6.40;4.70;;;14.00;99.40;;;;;;5113323;28;20227;-51
2022/04/21 08:36:54;;;;;;;5.90;4.63;;;13.80;98.70;;;;;;5113791;28;20294;-51
2022/04/21 08:39:23;;;;;;;5.83;4.87;;;13.60;99.00;;;;;;5113462;28;20684;-52
2022/04/21 08:41:54;;;;;;;5.77;4.33;;;13.60;99.10;;;;;;5112711;28;20290;-52
2022/04/21 08:44:22;;;;;;;5.27;4.20;;;13.70;99.20;;;;;;5112912;28;20228;-52
2022/04/21 08:46:54;;;;;;;8.40;4.47;;;13.60;97.90;;;;;;5113816;28;20208;-51
2022/04/21 08:49:25;;;;;;;5.70;4.50;;;13.70;98.50;;;;;;5113209;28;20764;-52
2022/04/21 08:51:53;;;;;;;5.57;4.27;;;14.00;97.90;;;;;;5113503;28;20192;-52
2022/04/21 08:54:24;;;;;;;5.10;4.13;;;13.90;97.50;;;;;;5112716;28;20637;-52
2022/04/21 08:56:52;;;;;;;4.90;4.20;;;14.00;97.80;;;;;;5112854;28;20248;-52
2022/04/21 08:59:22;;;;;;;5.77;4.20;;;14.00;97.50;;;;;;5113480;28;20200;-52
2022/04/21 09:01:52;;;;;;;4.63;4.10;;;14.10;97.60;;;;;;5113374;28;20207;-52
2022/04/21 09:04:20;;;;;;;6.77;4.23;;;14.10;97.20;;;;;;5113288;28;20281;-52
2022/04/21 09:06:48;;;;;;;7.80;4.30;;;14.30;97.30;;;;;;5112307;28;20757;-52
2022/04/21 09:09:21;;;;;;;6.23;4.00;;;14.50;97.40;;;;;;5112907;28;20273;-52
2022/04/21 09:11:52;;;;;;;6.17;4.63;;;14.40;97.00;;;;;;5112325;28;20695;-52
2022/04/21 09:14:20;;;;;;;5.87;4.10;;;14.70;97.30;;;;;;5112179;28;20220;-52
2022/04/21 09:16:49;;;;;;;6.13;4.30;;;14.80;96.50;;;;;;5112978;28;20268;-52
2022/04/21 09:19:19;;;;;;;4.53;3.90;;;14.80;98.00;;;;;;5112915;28;20203;-52
2022/04/21 09:21:50;;;;;;;5.67;4.00;;;14.90;97.00;;;;;;5112221;28;20203;-52
2022/04/21 09:24:22;;;;;;;6.47;4.00;;;14.90;96.90;;;;;;5112747;28;20224;-51
2022/04/21 09:26:51;;;;;;;4.40;4.00;;;14.70;96.30;;;;;;5112833;28;20690;-52
2022/04/21 09:29:28;;;;;;;6.45;4.13;;;14.70;97.10;;;;;;5112416;28;20227;-51
2022/04/21 09:31:58;;;;;;;4.40;3.80;;;14.90;97.10;;;;;;5111576;28;20679;-52
2022/04/21 09:34:36;;;;;;;5.93;3.97;;;14.90;96.90;;;;;;5102639;28;20243;-51
2022/04/21 09:37:07;;;;;;;5.50;3.97;;;14.80;96.90;;;;;;5099957;28;20234;-52
2022/04/21 09:39:40;;;;;;;5.73;3.67;;;14.60;98.20;;;;;;5112518;28;20203;-52
2022/04/21 09:42:09;;;;;;;5.47;4.60;;;14.70;98.10;;;;;;5112040;27;20637;-50
2022/04/21 09:47:29;;;;;;;4.43;4.03;;;15.10;98.20;;;;;;5111297;28;20203;-50
2022/04/21 09:50:11;;;;;;;4.97;4.20;;;15.20;97.40;;;;;;5112695;28;20227;-51
2022/04/21 09:52:50;;;;;;;7.75;4.93;;;15.20;96.90;;;;;;5110749;28;20200;-51
2022/04/21 09:55:26;;;;;;;4.97;3.90;;;15.20;97.30;;;;;;5112000;28;20581;-50
2022/04/21 09:58:05;;;;;;;7.07;4.22;;;15.20;97.00;;;;;;5111517;28;20621;-50
2022/04/21 10:00:34;;;;;;;5.45;4.35;;;15.30;97.50;;;;;;5112080;27;20199;-50
2022/04/21 10:03:05;;;;;;;6.95;5.53;;;15.30;96.70;;;;;;5111354;28;20207;-50
2022/04/21 10:05:35;;;;;;;4.50;4.03;;;15.30;97.10;;;;;;5112193;28;20211;-50
2022/04/21 10:08:05;;;;;;;7.80;4.72;;;15.50;97.70;;;;;;5112464;28;20204;-51
2022/04/21 10:10:35;;;;;;;7.13;4.55;;;15.60;98.10;;;;;;5092084;28;20228;-50
2022/04/21 10:13:05;;;;;;;5.47;4.57;;;15.80;97.00;;;;;;5091548;28;20595;-50
2022/04/21 10:15:34;;;;;;;5.00;4.50;;;15.80;96.80;;;;;;5091678;28;20650;-51
2022/04/21 10:18:04;;;;;;;6.93;4.55;;;15.80;97.50;;;;;;5103014;28;20203;-51
2022/04/21 10:20:34;;;;;;;6.30;4.60;;;16.00;97.20;;;;;;5112023;28;20256;-50
2022/04/21 10:23:04;;;;;;;5.40;4.38;;;16.10;96.80;;;;;;5100785;28;20650;-51
2022/04/21 10:25:40;;;;;;;5.38;4.07;;;16.20;98.30;;;;;;5110901;28;20253;-51
2022/04/21 10:28:40;;;;;;;6.03;4.50;;;16.20;97.90;;;;;;5111127;28;20615;-50
2022/04/21 10:31:31;;;;;;;7.10;4.68;;;16.00;96.30;;;;;;5109684;28;20227;-50
2022/04/21 10:34:02;;;;;;;7.50;5.05;;;15.70;96.70;;;;;;5109259;28;20776;-51
2022/04/21 10:36:41;;;;;;;5.53;5.00;;;15.60;97.10;;;;;;5111400;28;20262;-50
2022/04/21 10:39:23;;;;;;;7.28;4.80;;;15.70;97.90;;;;;;5110433;28;20203;-50
2022/04/21 10:42:06;;;;;;;7.50;4.70;;;15.70;97.40;;;;;;5111145;28;20208;-50
2022/04/21 10:44:42;;;;;;;5.60;4.70;;;15.60;97.00;;;;;;5111082;28;20231;-50
2022/04/21 10:47:35;;;;;;;7.82;4.97;;;15.60;97.30;;;;;;5111866;28;20233;-51
2022/04/21 10:50:18;;;;;;;5.97;4.93;;;15.70;97.00;;;;;;5111833;28;20590;-50
2022/04/21 10:58:49;;;;;;;6.78;5.10;;;15.70;97.40;;;;;;5110822;28;20188;-50
2022/04/21 11:01:23;;;;;;;6.03;5.00;;;15.80;97.50;;;;;;5110944;28;20206;-51
2022/04/21 11:04:12;;;;;;;6.38;4.60;;;15.60;97.50;;;;;;5110710;28;20219;-50
2022/04/21 11:06:42;;;;;;;5.13;4.35;;;15.90;97.90;;;;;;5110002;28;20265;-51
2022/04/21 11:09:46;;;;;;;5.55;4.43;;;15.90;96.90;;;;;;5110913;28;20792;-49
2022/04/21 11:12:49;;;;;;;8.02;5.70;;;15.90;97.30;;;;;;5109708;28;20238;-50
2022/04/21 11:15:39;;;;;;;8.95;5.40;;;15.60;96.90;;;;;;5108663;28;20231;-50
2022/04/21 11:18:10;;;;;;;8.23;4.90;;;15.60;97.10;;;;;;5099233;28;20728;-50
2022/04/21 11:20:40;;;;;;;7.40;5.53;;;15.80;97.40;;;;;;5114977;28;20570;-51
2022/04/21 11:23:10;;;;;;;7.82;5.00;;;15.80;96.80;;;;;;5114235;28;20215;-50
2022/04/21 11:25:41;;;;;;;5.78;5.20;;;15.90;97.40;;;;;;5114527;27;20199;-51
2022/04/21 11:28:12;;;;;;;9.23;5.65;;;16.10;97.60;;;;;;5114708;28;20211;-51
2022/04/21 11:30:40;;;;;;;7.35;4.93;;;16.10;98.20;;;;;;5113397;28;20314;-51
2022/04/21 11:33:11;;;;;;;6.65;5.22;;;16.20;98.10;;;;;;5113621;28;20211;-50
2022/04/21 11:35:39;;;;;;;8.75;5.60;;;16.50;97.10;;;;;;5114543;28;20207;-50
2022/04/21 11:38:07;;;;;;;7.80;5.80;;;16.60;97.80;;;;;;5114224;28;20254;-51
2022/04/21 11:40:37;;;;;;;8.73;6.13;;;16.60;97.30;;;;;;5114610;28;20211;-50
2022/04/21 11:43:16;;;;;;;6.32;5.72;;;16.50;96.60;;;;;;5113916;28;20212;-50
2022/04/21 11:45:56;;;;;;;8.77;6.13;;;16.20;97.10;;;;;;5114769;28;20252;-50
2022/04/21 11:48:30;;;;;;;7.82;6.68;;;16.20;97.40;;;;;;5114603;28;20187;-50
2022/04/21 11:50:59;;;;;;;11.18;6.68;;;16.00;97.00;;;;;;5115200;28;20219;-50
2022/04/21 11:53:29;;;;;;;7.22;6.50;;;16.00;97.00;;;;;;5133292;27;20231;-50
2022/04/21 11:55:57;;;;;;;9.88;7.35;;;15.90;97.40;;;;;;5135413;27;20204;-51
2022/04/21 11:58:32;;;;;;;9.75;6.75;;;15.60;97.60;;;;;;5135256;27;20203;-51
2022/04/21 12:06:38;;;;;;;7.13;6.05;;;15.70;98.00;;;;;;5114779;28;20269;-51
2022/04/21 12:09:08;;;;;;;10.68;7.25;;;15.60;97.70;;;;;;5114433;28;20199;-50
2022/04/21 12:11:36;;;;;;;10.73;6.93;;;15.60;97.80;;;;;;5114001;28;20240;-51
2022/04/21 12:14:06;;;;;;;10.00;6.60;;;15.50;97.70;;;;;;5113769;28;20227;-51
2022/04/21 12:16:40;;;;;;;11.35;6.60;;;15.50;97.90;;;;;;5114613;28;20272;-51
2022/04/21 12:19:32;;;;;;;7.25;6.40;;;15.70;98.20;;;;;;5094120;28;20590;-51
2022/04/21 12:22:06;;;;;;;6.75;6.00;;;15.80;98.10;;;;;;5085540;28;20241;-51
2022/04/21 12:24:39;;;;;;;10.82;6.57;;;15.80;97.60;;;;;;5092918;28;20228;-51
2022/04/21 12:27:13;;;;;;;8.93;6.13;;;15.80;98.10;;;;;;5092823;28;20265;-51
2022/04/21 12:29:51;;;;;;;7.57;6.40;;;15.80;97.70;;;;;;5091419;28;20238;-51
2022/04/21 12:32:22;;;;;;;7.65;6.30;;;15.70;97.90;;;;;;5092435;28;20234;-51
2022/04/21 12:34:50;;;;;;;8.35;6.00;;;15.70;98.20;;;;;;5092973;28;20262;-51
2022/04/21 12:37:25;;;;;;;10.60;7.03;;;15.80;98.00;;;;;;5093381;28;20211;-51
2022/04/21 12:39:54;;;;;;;7.30;5.88;;;15.90;98.00;;;;;;5102686;28;20191;-51
2022/04/21 12:42:45;;;;;;;9.70;6.60;;;16.10;98.00;;;;;;5112257;28;20231;-51
2022/04/21 12:45:15;;;;;;;10.25;6.47;;;15.70;97.90;;;;;;5113068;28;20216;-54
2022/04/21 12:47:44;;;;;;;9.48;6.80;;;15.60;98.10;;;;;;5113565;28;20207;-51
2022/04/21 12:50:18;;;;;;;10.52;6.53;;;15.70;98.40;;;;;;5113215;28;20204;-51
2022/04/21 12:52:48;;;;;;;11.98;6.30;;;15.80;99.00;;;;;;5113262;28;20278;-51
2022/04/21 12:55:26;;;;;;;8.93;6.90;;;16.00;98.90;;;;;;5112814;28;20224;-51
2022/04/21 12:58:02;;;;;;;10.40;6.55;;;15.80;97.90;;;;;;5113554;28;20203;-51
2022/04/21 13:00:33;;;;;;;10.65;6.60;;;15.70;98.30;;;;;;5113060;28;20188;-51
2022/04/21 13:03:02;;;;;;;9.30;6.55;;;15.70;98.40;;;;;;5112628;27;20203;-51
2022/04/21 13:05:30;;;;;;;8.32;6.82;;;15.70;98.20;;;;;;5112915;28;20213;-51
2022/04/21 13:07:59;;;;;;;10.05;6.55;;;15.50;98.50;;;;;;5111725;28;20204;-51
2022/04/21 13:10:27;;;;;;;10.68;6.15;;;15.50;98.80;;;;;;5113360;28;20415;-51
2022/04/21 13:12:55;;;;;;;9.45;6.07;;;15.30;98.50;;;;;;5112740;28;20687;-51
2022/04/21 13:15:23;;;;;;;11.15;6.15;;;15.40;98.60;;;;;;5113453;28;20260;-51
2022/04/21 13:17:53;;;;;;;8.63;6.13;;;15.40;98.80;;;;;;5112960;28;20260;-52
2022/04/21 13:23:03;;;;;;;9.98;6.38;;;15.30;99.10;;;;;;5112075;28;20257;-51
2022/04/21 13:25:31;;;;;;;7.82;6.30;;;15.30;99.20;;;;;;5112792;28;20199;-52
2022/04/21 13:27:59;;;;;;;11.10;6.82;;;15.40;99.50;;;;;;5113102;28;20207;-52
2022/04/21 13:30:28;;;;;;;8.93;6.67;;;15.50;99.10;;;;;;5111178;28;20672;-52
2022/04/21 13:35:43;;;;;;;9.80;6.68;;;15.50;99.40;;;;;;5112883;28;20203;-51
2022/04/21 13:38:11;;;;;;;7.88;5.93;;;15.40;99.20;;;;;;5112857;28;20248;-52
2022/04/21 13:40:39;;;;;;;14.18;6.55;;;15.50;99.80;;;;;;5109067;28;20682;-51
2022/04/21 13:43:08;;;;;;;9.48;6.63;;;15.50;99.90;;;;;;5110974;28;20208;-51
2022/04/21 13:45:57;;;;;;;9.25;6.10;;;15.60;99.90;;;;;;5112312;28;20203;-51
2022/04/21 13:48:27;;;;;;;9.88;6.78;;;15.70;99.90;;;;;;5111613;28;20203;-51
2022/04/21 13:50:55;;;;;;;9.90;6.53;;;15.40;99.40;;;;;;5112071;28;20772;-51
2022/04/21 13:53:23;;;;;;;9.50;6.43;;;15.30;99.50;;;;;;5110125;28;20227;-52
2022/04/21 13:55:51;;;;;;;9.43;7.40;;;15.00;99.70;;;;;;5112492;28;20211;-51
2022/04/21 13:58:19;;;;;;;10.00;7.07;;;14.90;99.70;;;;;;5111338;28;20208;-51
2022/04/21 14:00:48;;;;;;;9.05;6.78;;;14.70;99.90;;;;;;5112099;28;20203;-51